Time;durP1;ratioP1;P1;durP2;ratioP2;P2;SDS_P1;SDS_P2;PMS_P1;PMS_P2;Temp;Humidity;BMP_temperature;BMP_pressure;BME280_temperature;BME280_humidity;BME280_pressure;Samples;Min_cycle;Max_cycle;Signal;HPM_P1;HPM_P2
2022/07/25 00:02:22;;;;;;;10.98;6.10;;;;;;;19.78;82.95;100014.18;1744437;81;21226;-62
2022/07/25 00:04:52;;;;;;;9.45;5.85;;;;;;;19.74;82.93;100020.83;1743770;81;21123;-63
2022/07/25 00:07:22;;;;;;;10.00;6.70;;;;;;;19.72;83.00;100018.87;1755725;80;21155;-62
2022/07/25 00:09:52;;;;;;;8.35;6.00;;;;;;;19.69;83.04;100016.63;1745451;81;21112;-62
2022/07/25 00:12:25;;;;;;;8.88;5.67;;;;;;;19.70;83.07;100016.07;1756209;81;21127;-62
2022/07/25 00:14:58;;;;;;;7.95;5.58;;;;;;;19.69;83.00;100016.63;1752500;80;21565;-63
2022/07/25 00:17:30;;;;;;;7.33;5.17;;;;;;;19.69;82.76;100015.78;1741424;80;21181;-63
2022/07/25 00:20:03;;;;;;;7.35;5.15;;;;;;;19.65;82.75;100015.48;1757598;80;21479;-62
2022/07/25 00:22:34;;;;;;;8.35;5.33;;;;;;;19.59;82.52;100020.72;1757714;80;21733;-64
2022/07/25 00:25:07;;;;;;;7.33;5.45;;;;;;;19.57;82.70;100013.20;1746728;80;21166;-62
2022/07/25 00:27:36;;;;;;;7.90;5.70;;;;;;;19.56;82.62;100015.69;1767962;80;21114;-61
2022/07/25 00:30:09;;;;;;;7.70;5.33;;;;;;;19.55;82.58;100022.35;1740535;81;21174;-61
2022/07/25 00:32:40;;;;;;;7.72;5.10;;;;;;;19.54;82.46;100029.02;1783161;80;21138;-62
2022/07/25 00:35:13;;;;;;;8.25;5.83;;;;;;;19.53;82.33;100022.63;1757386;80;21269;-63
2022/07/25 00:37:45;;;;;;;9.00;5.97;;;;;;;19.54;82.41;100027.08;1708059;83;21115;-61
2022/07/25 00:40:17;;;;;;;7.78;6.00;;;;;;;19.58;82.32;100031.55;1721233;82;21565;-62
2022/07/25 00:42:48;;;;;;;8.70;5.75;;;;;;;19.54;81.78;100024.30;1728055;83;21142;-62
2022/07/25 00:45:18;;;;;;;5.72;5.05;;;;;;;19.47;81.82;100025.56;1698154;83;21141;-63
2022/07/25 00:47:51;;;;;;;9.33;5.80;;;;;;;19.46;81.87;100021.11;1612310;88;21217;-63
2022/07/25 00:50:21;;;;;;;6.78;5.37;;;;;;;19.44;81.85;100023.31;1619201;88;21139;-61
2022/07/25 00:52:53;;;;;;;8.48;5.80;;;;;;;19.40;81.92;100020.78;1687088;84;21586;-62
2022/07/25 00:55:25;;;;;;;8.38;5.72;;;;;;;19.35;82.07;100016.56;1690696;84;21273;-61
2022/07/25 00:57:55;;;;;;;6.97;6.08;;;;;;;19.35;82.31;100015.17;1687247;84;21561;-62
2022/07/25 01:00:26;;;;;;;8.88;5.40;;;;;;;19.35;82.34;100016.56;1682944;84;21166;-62
2022/07/25 01:02:56;;;;;;;6.72;5.70;;;;;;;19.32;82.14;100006.83;1687108;84;21103;-62
2022/07/25 01:05:26;;;;;;;8.30;6.00;;;;;;;19.28;82.26;100013.45;1634465;85;21649;-64
2022/07/25 01:07:57;;;;;;;7.40;5.53;;;;;;;19.24;82.22;100009.53;1688654;83;21228;-62
2022/07/25 01:10:30;;;;;;;8.45;6.03;;;;;;;19.20;82.22;100004.77;1688380;83;21126;-62
2022/07/25 01:13:02;;;;;;;6.47;5.10;;;;;;;19.17;82.35;100011.69;1688447;83;21149;-63
2022/07/25 01:15:33;;;;;;;6.97;5.70;;;;;;;19.17;82.42;100014.47;1694145;83;21558;-62
2022/07/25 01:18:04;;;;;;;7.58;5.83;;;;;;;19.14;82.38;100012.22;1715919;83;21232;-63
2022/07/25 01:20:35;;;;;;;9.18;5.47;;;;;;;19.12;82.45;100013.58;1697461;83;21117;-62
2022/07/25 01:23:05;;;;;;;6.67;5.42;;;;;;;19.07;82.47;100012.15;1680080;83;21194;-63
2022/07/25 01:25:36;;;;;;;7.83;6.15;;;;;;;19.04;82.51;100006.57;1619226;87;21253;-64
2022/07/25 01:28:08;;;;;;;9.53;5.78;;;;;;;18.99;82.51;100007.36;1691883;83;21114;-63
2022/07/25 01:30:40;;;;;;;7.12;5.50;;;;;;;18.96;82.55;100012.60;1750156;81;21147;-62
2022/07/25 01:33:19;;;;;;;10.30;5.75;;;;;;;18.94;82.77;100009.25;1760845;81;21143;-62
2022/07/25 01:35:51;;;;;;;10.23;6.30;;;;;;;18.89;82.65;100012.81;1756862;81;21547;-64
2022/07/25 01:38:22;;;;;;;8.60;6.10;;;;;;;18.84;82.68;100004.95;1744342;81;21190;-63
2022/07/25 01:40:52;;;;;;;7.90;5.17;;;;;;;18.79;82.73;100012.67;1635206;86;21193;-62
2022/07/25 01:43:22;;;;;;;8.68;6.00;;;;;;;18.79;82.71;100014.61;1656820;85;21244;-62
2022/07/25 01:45:53;;;;;;;7.78;5.90;;;;;;;18.77;82.64;100013.48;1667698;85;21272;-61
2022/07/25 01:48:26;;;;;;;8.43;5.70;;;;;;;18.74;82.60;100015.94;1658602;85;21158;-62
2022/07/25 01:50:57;;;;;;;8.95;5.47;;;;;;;18.71;82.60;100015.91;1664766;85;21126;-63
2022/07/25 01:53:30;;;;;;;7.87;5.60;;;;;;;18.67;82.56;100018.38;1670087;85;21167;-63
2022/07/25 01:56:01;;;;;;;6.90;4.90;;;;;;;18.64;82.60;100017.51;1664370;85;21134;-63
2022/07/25 01:58:35;;;;;;;7.17;5.55;;;;;;;18.64;82.63;100020.28;1615502;88;21244;-62
2022/07/25 02:01:06;;;;;;;9.10;6.00;;;;;;;18.64;82.52;100019.44;1617372;87;21230;-64
2022/07/25 02:03:37;;;;;;;7.55;5.97;;;;;;;18.64;82.64;100023.61;1616864;88;21565;-63
2022/07/25 02:06:07;;;;;;;7.78;5.53;;;;;;;18.64;82.14;100024.45;1667922;84;21139;-62
2022/07/25 02:08:39;;;;;;;10.98;5.60;;;;;;;18.60;82.11;100021.03;1677798;84;21728;-63
2022/07/25 02:11:10;;;;;;;9.38;5.37;;;;;;;18.59;82.22;100021.58;1678383;85;21563;-63
2022/07/25 02:13:42;;;;;;;7.55;5.50;;;;;;;18.60;82.17;100019.64;1683751;84;21176;-63
2022/07/25 02:16:14;;;;;;;10.05;5.42;;;;;;;18.63;82.02;100017.77;1714726;80;21170;-62
2022/07/25 02:18:46;;;;;;;7.75;5.17;;;;;;;18.62;81.83;100023.86;1762061;80;21215;-63
2022/07/25 02:21:19;;;;;;;9.18;5.55;;;;;;;18.62;81.79;100024.41;1751843;81;21151;-62
2022/07/25 02:23:49;;;;;;;8.95;4.87;;;;;;;18.62;81.70;100024.41;1754926;81;21190;-62
2022/07/25 02:26:19;;;;;;;8.75;5.00;;;;;;;18.64;81.54;100029.16;1708029;84;21222;-62
2022/07/25 02:28:51;;;;;;;6.92;4.95;;;;;;;18.64;81.53;100027.77;1756318;81;21190;-62
2022/07/25 02:31:23;;;;;;;8.23;5.50;;;;;;;18.64;81.36;100028.61;1744016;81;21155;-63
2022/07/25 02:33:54;;;;;;;7.80;5.40;;;;;;;18.63;81.17;100026.09;1704594;82;21134;-62
2022/07/25 02:36:24;;;;;;;8.48;5.42;;;;;;;18.60;81.09;100021.03;1744072;81;21118;-61
2022/07/25 02:38:55;;;;;;;9.00;5.28;;;;;;;18.57;80.98;100023.77;1661280;84;21546;-63
2022/07/25 02:41:26;;;;;;;6.22;5.28;;;;;;;18.57;81.10;100018.22;1752839;81;21155;-61
2022/07/25 02:43:57;;;;;;;7.62;5.50;;;;;;;18.59;81.06;100024.35;1761473;81;21107;-62
2022/07/25 02:46:28;;;;;;;7.53;5.55;;;;;;;18.61;80.95;100028.25;1773994;81;21108;-61
2022/07/25 02:48:59;;;;;;;7.78;4.90;;;;;;;18.61;80.91;100030.52;1719146;81;21127;-63
2022/07/25 02:51:29;;;;;;;9.13;5.35;;;;;;;18.63;80.69;100035.80;1696404;82;21155;-62
2022/07/25 02:54:00;;;;;;;7.50;5.28;;;;;;;18.58;80.51;100036.55;1745986;81;21154;-62
2022/07/25 02:56:32;;;;;;;10.68;5.28;;;;;;;18.53;80.51;100044.81;1761423;80;21171;-63
2022/07/25 02:59:03;;;;;;;8.40;5.33;;;;;;;18.49;80.45;100040.87;1746548;80;21096;-63
2022/07/25 03:01:36;;;;;;;10.55;5.72;;;;;;;18.45;80.61;100041.66;1707944;83;21276;-61
2022/07/25 03:04:07;;;;;;;6.17;4.97;;;;;;;18.42;80.62;100043.56;1743995;81;21591;-62
2022/07/25 03:06:38;;;;;;;11.43;5.05;;;;;;;18.41;80.58;100042.72;1696168;84;21609;-61
2022/07/25 03:09:11;;;;;;;7.60;5.20;;;;;;;18.40;80.69;100039.66;1768142;81;21151;-64
2022/07/25 03:11:42;;;;;;;8.73;5.20;;;;;;;18.41;80.76;100047.42;1758089;81;21127;-61
2022/07/25 03:14:13;;;;;;;9.35;5.40;;;;;;;18.42;80.73;100044.95;1686835;84;21288;-63
2022/07/25 03:16:45;;;;;;;7.85;5.40;;;;;;;18.40;80.62;100042.43;1690440;84;21190;-61
2022/07/25 03:19:16;;;;;;;8.45;5.03;;;;;;;18.39;80.76;100035.20;1681806;84;21253;-63
2022/07/25 03:21:46;;;;;;;5.70;4.97;;;;;;;18.40;80.59;100038.81;1691223;84;21176;-63
2022/07/25 03:24:17;;;;;;;10.43;5.37;;;;;;;18.36;80.54;100035.72;1686727;84;21177;-62
2022/07/25 03:26:48;;;;;;;8.98;4.92;;;;;;;18.37;80.60;100040.17;1688436;84;21103;-62
2022/07/25 03:29:19;;;;;;;6.62;4.90;;;;;;;18.38;80.62;100036.30;1691562;84;21191;-62
2022/07/25 03:31:51;;;;;;;6.95;4.75;;;;;;;18.36;80.66;100031.01;1673157;84;21605;-62
2022/07/25 03:34:23;;;;;;;10.85;4.90;;;;;;;18.38;80.65;100030.75;1687312;84;21220;-62
2022/07/25 03:36:54;;;;;;;7.75;4.90;;;;;;;18.39;80.68;100032.42;1685429;84;21611;-64
2022/07/25 03:39:25;;;;;;;7.30;4.87;;;;;;;18.42;80.59;100030.52;1738666;80;21174;-61
2022/07/25 03:41:56;;;;;;;7.78;4.97;;;;;;;18.47;80.46;100030.59;1775415;80;21514;-63
2022/07/25 03:44:27;;;;;;;7.80;4.80;;;;;;;18.47;80.30;100034.75;1783784;80;21103;-63
2022/07/25 03:46:57;;;;;;;6.92;4.75;;;;;;;18.47;80.24;100034.75;1757978;80;21567;-63
2022/07/25 03:49:28;;;;;;;8.23;4.83;;;;;;;18.46;80.18;100035.84;1744167;80;21155;-63
2022/07/25 03:52:00;;;;;;;7.22;4.90;;;;;;;18.48;80.19;100035.04;1747859;81;21161;-63
2022/07/25 03:54:32;;;;;;;7.15;5.10;;;;;;;18.49;80.10;100039.48;1702692;82;21118;-62
2022/07/25 03:57:05;;;;;;;9.33;5.58;;;;;;;18.51;80.08;100036.45;1620441;88;21136;-62
2022/07/25 03:59:37;;;;;;;6.83;4.75;;;;;;;18.53;79.91;100039.27;1666674;84;21115;-62
2022/07/25 04:02:10;;;;;;;7.87;4.78;;;;;;;18.55;79.64;100044.55;1689128;84;21222;-62
2022/07/25 04:04:41;;;;;;;7.95;4.53;;;;;;;18.57;79.51;100043.75;1677574;84;22022;-62
2022/07/25 04:07:12;;;;;;;7.25;4.53;;;;;;;18.56;79.35;100051.23;1655318;85;21104;-62
2022/07/25 04:09:44;;;;;;;9.35;5.05;;;;;;;18.56;79.33;100056.78;1655472;84;21186;-61
2022/07/25 04:12:17;;;;;;;10.13;5.12;;;;;;;18.55;79.27;100056.48;1691705;84;21598;-63
2022/07/25 04:14:49;;;;;;;8.33;5.17;;;;;;;18.54;79.09;100062.30;1676398;84;21111;-64
2022/07/25 04:17:20;;;;;;;9.20;5.15;;;;;;;18.50;79.17;100060.59;1670293;85;21151;-62
2022/07/25 04:19:53;;;;;;;11.53;5.28;;;;;;;18.52;79.09;100060.33;1681798;84;21135;-64
2022/07/25 04:22:25;;;;;;;8.13;5.12;;;;;;;18.51;79.04;100060.87;1664361;85;21142;-62
2022/07/25 04:24:55;;;;;;;9.15;5.25;;;;;;;18.51;78.63;100055.33;1692763;83;21154;-64
2022/07/25 04:27:27;;;;;;;7.87;5.35;;;;;;;18.52;78.57;100059.78;1637569;85;21153;-61
2022/07/25 04:29:58;;;;;;;6.35;4.53;;;;;;;18.54;78.55;100058.14;1664779;83;21555;-62
2022/07/25 04:32:29;;;;;;;8.20;4.60;;;;;;;18.57;78.57;100064.01;1684876;83;21162;-62
2022/07/25 04:35:01;;;;;;;6.67;4.58;;;;;;;18.64;78.61;100062.45;1692521;85;21154;-61
2022/07/25 04:37:34;;;;;;;9.00;5.40;;;;;;;18.66;78.43;100061.09;1681833;83;21226;-62
2022/07/25 04:40:07;;;;;;;11.80;6.83;;;;;;;18.68;78.30;100061.68;1740081;80;21167;-62
2022/07/25 04:42:39;;;;;;;8.83;5.17;;;;;;;18.73;78.04;100068.39;1769926;80;21095;-64
2022/07/25 04:45:10;;;;;;;9.63;5.12;;;;;;;18.76;78.02;100063.16;1757779;80;21809;-61
2022/07/25 04:47:41;;;;;;;9.38;5.40;;;;;;;18.81;77.89;100056.83;1682875;84;21336;-64
2022/07/25 04:50:13;;;;;;;8.85;5.10;;;;;;;18.85;77.75;100069.09;1673610;84;21550;-65
2022/07/25 04:52:46;;;;;;;7.00;5.30;;;;;;;18.90;77.69;100065.84;1683265;84;21547;-64
2022/07/25 04:55:18;;;;;;;7.72;5.22;;;;;;;18.94;77.42;100062.84;1680254;85;21676;-62
2022/07/25 04:57:49;;;;;;;9.55;5.40;;;;;;;19.00;77.36;100069.28;1683795;84;21598;-62
2022/07/25 05:00:22;;;;;;;9.03;5.37;;;;;;;19.06;77.00;100072.95;1679294;84;21238;-61
2022/07/25 05:02:53;;;;;;;8.28;5.62;;;;;;;19.06;76.68;100071.56;1680278;85;21947;-64
2022/07/25 05:05:24;;;;;;;8.98;5.45;;;;;;;19.04;76.78;100071.83;1671711;84;21123;-64
2022/07/25 05:07:59;;;;;;;8.38;5.17;;;;;;;19.03;76.78;100074.31;1682457;84;21150;-62
2022/07/25 05:10:30;;;;;;;11.43;5.87;;;;;;;19.08;76.77;100067.98;1673385;84;21174;-64
2022/07/25 05:13:01;;;;;;;9.43;5.37;;;;;;;19.09;76.49;100071.05;1725086;80;21094;-63
2022/07/25 05:15:33;;;;;;;8.33;5.40;;;;;;;19.12;76.44;100071.91;1704511;83;21126;-62
2022/07/25 05:18:04;;;;;;;9.05;5.87;;;;;;;19.12;76.28;100071.91;1745893;80;21151;-62
2022/07/25 05:20:37;;;;;;;10.15;5.47;;;;;;;19.13;76.25;100066.09;1764648;80;21131;-61
2022/07/25 05:23:09;;;;;;;9.48;5.60;;;;;;;19.14;76.26;100071.94;1749547;80;21197;-63
2022/07/25 05:25:40;;;;;;;10.53;5.87;;;;;;;19.18;76.28;100075.86;1773775;80;21581;-62
2022/07/25 05:28:16;;;;;;;12.53;7.45;;;;;;;19.22;76.02;100070.07;1766263;80;21527;-62
2022/07/25 05:30:46;;;;;;;14.73;7.33;;;;;;;19.23;75.93;100070.36;1761024;80;21523;-62
2022/07/25 05:33:18;;;;;;;10.32;6.28;;;;;;;19.29;75.78;100072.08;1762463;80;21103;-63
2022/07/25 05:35:51;;;;;;;11.18;6.20;;;;;;;19.29;75.51;100078.19;1686571;83;21131;-62
2022/07/25 05:38:25;;;;;;;11.22;5.42;;;;;;;19.28;75.66;100074.58;1682258;83;21167;-62
2022/07/25 05:40:57;;;;;;;10.25;6.03;;;;;;;19.32;75.50;100074.89;1632487;87;21636;-64
2022/07/25 05:43:29;;;;;;;13.83;7.65;;;;;;;19.33;75.32;100076.56;1701877;83;21202;-63
2022/07/25 05:46:02;;;;;;;8.80;6.05;;;;;;;19.36;75.45;100071.88;1707553;83;21170;-63
2022/07/25 05:48:33;;;;;;;14.55;7.35;;;;;;;19.40;75.15;100077.19;1699854;83;21119;-66
2022/07/25 05:51:05;;;;;;;10.20;6.85;;;;;;;19.42;74.98;100077.77;1706838;83;21188;-66
2022/07/25 05:53:37;;;;;;;11.03;6.37;;;;;;;19.45;74.61;100080.56;1723453;80;21801;-67
2022/07/25 05:56:09;;;;;;;11.38;5.92;;;;;;;19.47;74.71;100064.47;1768105;79;21164;-64
2022/07/25 05:58:41;;;;;;;11.80;6.92;;;;;;;19.53;74.72;100063.47;1752165;80;21519;-64
2022/07/25 06:01:14;;;;;;;10.75;6.62;;;;;;;19.59;74.66;100065.19;1764795;80;21149;-62
2022/07/25 06:03:45;;;;;;;10.50;6.60;;;;;;;19.69;74.82;100062.48;1752423;80;21122;-63
2022/07/25 06:06:19;;;;;;;10.30;5.85;;;;;;;19.81;74.37;100066.47;1752242;80;21123;-63
2022/07/25 06:08:49;;;;;;;11.85;6.05;;;;;;;19.92;74.07;100062.66;1751248;80;21178;-62
2022/07/25 06:11:21;;;;;;;13.58;6.65;;;;;;;19.98;73.68;100064.92;1752649;80;21110;-64
2022/07/25 06:13:52;;;;;;;8.93;5.75;;;;;;;20.01;73.47;100067.16;1776016;80;21605;-62
2022/07/25 06:16:23;;;;;;;14.43;6.80;;;;;;;20.01;73.19;100059.66;1738021;80;21157;-64
2022/07/25 06:18:54;;;;;;;9.58;5.80;;;;;;;20.01;73.26;100062.99;1695604;83;21285;-64
2022/07/25 06:21:25;;;;;;;8.98;5.55;;;;;;;20.03;73.09;100056.05;1696878;84;21135;-61
2022/07/25 06:23:57;;;;;;;9.50;5.65;;;;;;;20.04;72.89;100061.06;1700412;83;21555;-64
2022/07/25 06:26:28;;;;;;;10.78;5.97;;;;;;;20.07;72.73;100058.59;1749959;80;21134;-63
2022/07/25 06:29:01;;;;;;;7.67;5.85;;;;;;;20.12;73.01;100056.39;1664053;85;21178;-62
2022/07/25 06:31:33;;;;;;;12.95;6.65;;;;;;;20.20;72.88;100055.36;1649493;85;21130;-63
2022/07/25 06:34:03;;;;;;;12.28;6.10;;;;;;;20.27;72.47;100055.12;1645436;86;21462;-62
2022/07/25 06:36:35;;;;;;;9.55;6.15;;;;;;;20.32;72.14;100058.48;1613651;88;21229;-63
2022/07/25 06:39:06;;;;;;;11.40;6.15;;;;;;;20.39;72.00;100059.94;1594883;89;21166;-62
2022/07/25 06:41:37;;;;;;;11.50;5.83;;;;;;;20.44;71.37;100057.18;1560620;91;21165;-62
2022/07/25 06:44:08;;;;;;;10.05;6.40;;;;;;;20.52;71.35;100054.43;1603725;88;21176;-63
2022/07/25 06:46:39;;;;;;;11.68;6.40;;;;;;;20.59;70.83;100053.63;1557371;88;21183;-63
2022/07/25 06:49:12;;;;;;;11.28;6.08;;;;;;;20.61;70.87;100050.02;1657702;85;21372;-62
2022/07/25 06:51:45;;;;;;;12.10;5.90;;;;;;;20.65;70.66;100053.09;1602434;88;21208;-61
2022/07/25 06:54:17;;;;;;;11.97;6.17;;;;;;;20.77;70.85;100055.08;1663344;82;21149;-62
2022/07/25 06:56:48;;;;;;;12.50;5.80;;;;;;;20.97;69.90;100049.60;1679691;80;21189;-62
2022/07/25 06:59:18;;;;;;;10.63;5.33;;;;;;;21.34;69.54;100048.58;1661097;85;21713;-62
2022/07/25 07:01:50;;;;;;;10.35;5.22;;;;;;;21.80;68.23;100048.88;1676622;85;21150;-62
2022/07/25 07:04:24;;;;;;;12.47;5.80;;;;;;;22.17;66.73;100051.12;1673673;85;21634;-61
2022/07/25 07:06:56;;;;;;;15.32;7.42;;;;;;;22.34;64.22;100054.42;1659490;85;21166;-63
2022/07/25 07:09:27;;;;;;;15.23;6.30;;;;;;;22.40;64.28;100051.88;1657901;85;21139;-63
2022/07/25 07:11:58;;;;;;;9.95;5.65;;;;;;;22.49;64.24;100054.92;1646635;85;21282;-63
2022/07/25 07:14:29;;;;;;;11.15;5.65;;;;;;;22.58;63.45;100048.47;1620137;87;21118;-62
2022/07/25 07:17:01;;;;;;;9.90;5.62;;;;;;;22.87;63.64;100052.86;1621906;84;21653;-63
2022/07/25 07:19:32;;;;;;;10.88;5.80;;;;;;;23.16;61.46;100050.73;1672238;85;21257;-64
2022/07/25 07:22:02;;;;;;;8.30;5.60;;;;;;;23.32;60.76;100051.73;1671330;84;21193;-64
2022/07/25 07:24:32;;;;;;;8.28;5.33;;;;;;;23.55;59.14;100039.03;1654091;86;21577;-63
2022/07/25 07:27:03;;;;;;;10.30;5.80;;;;;;;23.66;59.34;100041.17;1667094;84;21276;-62
2022/07/25 07:29:34;;;;;;;8.90;5.08;;;;;;;23.83;58.09;100042.98;1683639;84;21244;-62
2022/07/25 07:32:07;;;;;;;9.23;5.20;;;;;;;23.95;57.52;100044.81;1674359;84;21581;-63
2022/07/25 07:34:39;;;;;;;9.98;5.42;;;;;;;24.16;56.95;100034.84;1711631;82;21135;-64
2022/07/25 07:37:13;;;;;;;9.00;5.50;;;;;;;24.48;55.17;100034.22;1697291;83;21122;-63
2022/07/25 07:39:45;;;;;;;6.75;4.78;;;;;;;24.79;54.91;100031.31;1690098;82;21304;-65
2022/07/25 07:42:17;;;;;;;26.52;6.85;;;;;;;25.15;53.75;100033.07;1733697;82;21103;-62
2022/07/25 07:44:49;;;;;;;10.32;4.95;;;;;;;25.35;53.17;100036.13;1707222;83;21765;-62
2022/07/25 07:47:20;;;;;;;10.80;4.87;;;;;;;25.55;53.43;100025.17;1586032;89;21213;-64
2022/07/25 07:49:51;;;;;;;7.85;4.80;;;;;;;25.76;52.14;100023.72;1593508;89;21193;-63
2022/07/25 07:52:23;;;;;;;7.35;4.50;;;;;;;26.00;51.81;100024.96;1661875;86;21291;-63
2022/07/25 07:57:43;;;;;;;8.45;5.12;;;;;;;26.16;50.21;100027.77;1660256;85;21142;-63
2022/07/25 08:00:16;;;;;;;6.37;4.37;;;;;;;25.98;50.00;100031.45;1652470;85;21158;-61
2022/07/25 08:02:51;;;;;;;8.08;4.87;;;;;;;25.99;49.41;100032.29;1662429;85;21594;-62
2022/07/25 08:05:26;;;;;;;7.85;4.67;;;;;;;25.93;50.07;100032.95;1634969;87;21126;-63
2022/07/25 08:07:58;;;;;;;;;;;;;;;25.96;49.47;100033.74;1657837;85;21557;-62
2022/07/25 08:10:31;;;;;;;6.90;4.35;;;;;;;25.91;49.69;100030.45;1662462;85;20155;-61
2022/07/25 08:13:13;;;;;;;10.03;4.78;;;;;;;26.01;48.77;100028.06;1695642;84;21376;-62
2022/07/25 08:15:44;;;;;;;8.60;5.00;;;;;;;26.16;49.35;100019.34;1694488;84;21783;-61
2022/07/25 08:18:15;;;;;;;9.73;4.37;;;;;;;26.15;48.94;100017.68;1692082;83;21537;-62
2022/07/25 08:20:49;;;;;;;8.05;4.47;;;;;;;26.00;48.38;100015.13;1675231;83;21218;-63
2022/07/25 08:23:21;;;;;;;9.55;4.05;;;;;;;25.69;47.87;100030.86;1689772;84;21268;-66
2022/07/25 08:25:55;;;;;;;6.62;4.72;;;;;;;25.42;48.60;100034.38;1671754;85;21234;-63
2022/07/25 08:28:27;;;;;;;7.83;4.58;;;;;;;25.15;49.65;100040.66;1695466;84;21133;-64
2022/07/25 08:30:58;;;;;;;5.70;3.92;;;;;;;24.91;50.17;100037.31;1701264;84;21143;-62
2022/07/25 08:33:30;;;;;;;8.65;4.37;;;;;;;24.79;50.84;100039.72;1643280;84;21649;-62
2022/07/25 08:36:02;;;;;;;8.23;4.33;;;;;;;24.66;51.09;100044.06;1694065;83;21158;-64
2022/07/25 08:38:34;;;;;;;6.95;4.22;;;;;;;24.52;51.33;100045.09;1769215;80;21150;-64
2022/07/25 08:41:07;;;;;;;7.12;3.85;;;;;;;24.42;51.49;100041.84;1766720;79;21585;-65
2022/07/25 08:43:50;;;;;;;5.65;4.00;;;;;;;24.35;50.46;100041.38;1688805;84;21221;-63
2022/07/25 08:46:22;;;;;;;6.72;4.10;;;;;;;24.29;50.85;100040.59;1673788;84;21206;-62
2022/07/25 08:48:54;;;;;;;6.90;4.45;;;;;;;24.40;50.67;100041.88;1681573;84;21134;-63
2022/07/25 08:51:26;;;;;;;6.58;4.30;;;;;;;24.41;51.23;100035.98;1678523;84;21130;-63
2022/07/25 08:53:57;;;;;;;7.58;4.40;;;;;;;24.33;51.79;100041.67;1678058;84;21158;-64
2022/07/25 08:56:27;;;;;;;9.63;4.62;;;;;;;24.28;52.25;100043.13;1679571;84;21670;-62
2022/07/25 08:58:58;;;;;;;8.60;4.62;;;;;;;24.23;52.51;100038.12;1678592;84;21126;-61
2022/07/25 09:01:30;;;;;;;6.70;4.03;;;;;;;24.22;52.20;100039.25;1668024;84;21635;-62
2022/07/25 09:04:03;;;;;;;8.30;4.55;;;;;;;24.27;51.37;100035.02;1700939;83;21142;-63
2022/07/25 09:06:35;;;;;;;7.50;4.22;;;;;;;24.50;51.48;100034.75;1670037;84;21276;-63
2022/07/25 09:09:07;;;;;;;8.08;4.35;;;;;;;24.78;50.29;100051.23;1662217;84;21285;-64
2022/07/25 09:11:39;;;;;;;7.97;4.35;;;;;;;24.98;49.16;100044.55;1612838;88;21593;-64
2022/07/25 09:14:12;;;;;;;6.25;4.22;;;;;;;25.09;49.20;100043.27;1644301;87;21696;-63
2022/07/25 09:16:46;;;;;;;8.43;4.08;;;;;;;25.25;48.97;100036.29;1565008;91;21433;-62
2022/07/25 09:19:22;;;;;;;6.90;4.30;;;;;;;25.40;48.55;100026.27;1611185;88;21172;-63
2022/07/25 09:22:04;;;;;;;7.00;4.42;;;;;;;25.41;48.33;100025.70;1629135;87;21193;-64
2022/07/25 09:24:38;;;;;;;7.67;4.47;;;;;;;25.43;48.50;100022.84;1613825;88;21156;-63
2022/07/25 09:27:10;;;;;;;8.55;4.92;;;;;;;25.43;48.58;100025.65;1583089;88;21686;-63
2022/07/25 09:29:49;;;;;;;17.65;4.87;;;;;;;25.42;49.02;100024.55;1622739;88;21200;-68
2022/07/25 09:32:24;;;;;;;8.58;4.12;;;;;;;25.42;49.12;100028.19;1622592;88;21378;-68
2022/07/25 09:34:55;;;;;;;91.78;6.53;;;;;;;25.43;48.82;100016.41;1668732;84;21270;-61
2022/07/25 09:37:26;;;;;;;8.20;4.30;;;;;;;25.44;48.87;100025.91;1615924;87;21147;-58
2022/07/25 09:39:56;;;;;;;8.63;5.05;;;;;;;25.41;47.49;100020.92;1704163;84;21119;-57
2022/07/25 09:42:35;;;;;;;8.38;4.20;;;;;;;25.33;47.32;100024.95;1763366;80;21582;-58
2022/07/25 09:45:11;;;;;;;6.22;4.22;;;;;;;25.25;47.39;100020.30;1746000;80;21577;-58
2022/07/25 09:48:03;;;;;;;5.08;3.85;;;;;;;25.15;47.51;100028.87;1755170;80;21107;-57
2022/07/25 09:50:38;;;;;;;5.97;3.83;;;;;;;25.00;49.49;100026.86;1772090;80;21190;-59
2022/07/25 09:53:14;;;;;;;9.55;4.45;;;;;;;24.83;50.27;100029.58;1754018;80;21577;-59
2022/07/25 09:55:49;;;;;;;9.25;4.03;;;;;;;24.66;50.49;100024.45;1751291;80;21162;-59
2022/07/25 09:58:18;;;;;;;6.65;4.35;;;;;;;24.58;50.11;100022.88;1618188;87;21144;-60
2022/07/25 10:00:50;;;;;;;6.60;4.28;;;;;;;24.56;50.16;100023.75;1629326;86;21413;-59
2022/07/25 10:03:52;;;;;;;10.13;4.67;;;;;;;24.61;50.17;100014.71;1643277;87;21673;-60
2022/07/25 10:06:59;;;;;;;7.33;4.35;;;;;;;24.61;50.01;100016.68;1622116;88;21168;-66
2022/07/25 10:09:44;;;;;;;6.20;4.47;;;;;;;24.57;49.82;100016.45;1622276;87;21183;-69
2022/07/25 10:12:21;;;;;;;5.35;3.72;;;;;;;24.56;50.62;100020.37;1516402;93;21166;-66
2022/07/25 10:15:12;;;;;;;6.42;4.20;;;;;;;24.58;50.49;100013.08;1529036;92;21198;-64
2022/07/25 10:17:47;;;;;;;5.53;3.85;;;;;;;24.54;50.60;100017.05;1642319;87;21203;-64
2022/07/25 10:20:21;;;;;;;12.15;4.58;;;;;;;24.57;50.00;100008.61;1636646;87;21587;-65
2022/07/25 10:22:53;;;;;;;8.28;4.20;;;;;;;24.60;49.38;100013.61;1612545;87;21183;-65
2022/07/25 10:25:27;;;;;;;8.33;3.85;;;;;;;24.64;49.46;100018.88;1616212;88;21179;-65
2022/07/25 10:28:04;;;;;;;6.97;3.70;;;;;;;24.66;49.82;100012.41;1611763;87;21202;-64
2022/07/25 10:30:38;;;;;;;6.10;3.90;;;;;;;24.61;50.28;100018.08;1686036;83;21103;-65
2022/07/25 10:33:20;;;;;;;5.15;3.58;;;;;;;24.61;50.81;100020.88;1632692;86;21184;-65
2022/07/25 10:35:51;;;;;;;7.85;3.42;;;;;;;24.64;49.88;100009.08;1605179;88;21166;-63
2022/07/25 10:38:29;;;;;;;4.37;3.20;;;;;;;24.69;49.06;100017.98;1627712;87;21272;-64
2022/07/25 10:41:04;;;;;;;12.28;4.58;;;;;;;24.71;48.50;100014.31;1624427;87;21151;-65
2022/07/25 10:43:43;;;;;;;5.85;3.42;;;;;;;24.75;48.32;100014.01;1624732;88;21339;-66
2022/07/25 10:46:22;;;;;;;5.17;3.60;;;;;;;24.79;48.04;100020.67;1633015;87;21203;-65
2022/07/25 10:49:05;;;;;;;7.90;3.42;;;;;;;24.79;48.27;100020.11;1627925;88;21200;-65
2022/07/25 10:51:38;;;;;;;5.78;3.62;;;;;;;24.78;48.51;100012.84;1634133;86;21221;-65
2022/07/25 10:54:16;;;;;;;8.78;4.15;;;;;;;24.78;48.48;100016.20;1626533;88;21154;-66
2022/07/25 10:56:57;;;;;;;5.40;4.05;;;;;;;24.81;48.35;100019.23;1631057;83;21178;-64
2022/07/25 10:59:37;;;;;;;10.80;4.47;;;;;;;24.82;48.13;100014.47;1754337;80;21546;-66
2022/07/25 11:02:15;;;;;;;6.45;3.80;;;;;;;24.83;48.19;100011.36;1754431;80;21139;-65
2022/07/25 11:04:45;;;;;;;6.87;4.05;;;;;;;24.85;48.30;100018.91;1754299;80;21637;-64
2022/07/25 11:07:19;;;;;;;5.85;3.67;;;;;;;24.86;48.12;100007.95;1753968;80;21135;-65
2022/07/25 11:10:00;;;;;;;9.10;4.40;;;;;;;24.89;48.18;100015.77;1754531;80;21166;-64
2022/07/25 11:12:31;;;;;;;6.08;3.87;;;;;;;24.98;47.79;100010.91;1705439;83;21062;-65
2022/07/25 11:15:07;;;;;;;8.28;4.70;;;;;;;25.07;46.65;100007.13;1766457;80;21506;-65
2022/07/25 11:17:38;;;;;;;6.60;4.60;;;;;;;25.08;46.34;100003.18;1757801;80;21474;-67
2022/07/25 11:20:10;;;;;;;7.05;4.53;;;;;;;25.09;46.56;100001.21;1744421;81;21070;-66
2022/07/25 11:22:41;;;;;;;8.28;4.70;;;;;;;25.11;46.27;100001.17;1736621;81;21012;-66
2022/07/25 11:25:13;;;;;;;8.78;4.05;;;;;;;25.11;46.68;100000.34;1756058;81;21095;-66
2022/07/25 11:27:42;;;;;;;8.43;3.80;;;;;;;25.15;46.78;99999.99;1753938;81;21083;-68
2022/07/25 11:30:15;;;;;;;6.80;3.52;;;;;;;25.19;46.22;99999.65;1749142;80;21119;-65
2022/07/25 11:32:52;;;;;;;5.92;3.47;;;;;;;25.25;45.39;99999.83;1763146;80;21075;-66
2022/07/25 11:35:29;;;;;;;6.42;3.95;;;;;;;25.26;43.36;100001.50;1761678;81;21433;-62
2022/07/25 11:38:03;;;;;;;6.90;4.12;;;;;;;25.24;43.97;99998.16;1760598;80;21132;-65
2022/07/25 11:40:42;;;;;;;7.33;3.85;;;;;;;25.19;44.40;99993.47;1743954;81;21086;-63
2022/07/25 11:43:22;;;;;;;6.53;3.67;;;;;;;25.18;44.49;99997.41;1681865;84;21118;-63
2022/07/25 11:46:08;;;;;;;197.00;153.02;;;;;;;25.19;44.98;99985.63;1755373;81;21503;-65
2022/07/25 11:48:39;;;;;;;63.63;50.50;;;;;;;25.19;45.52;99985.63;1773689;80;21412;-63
2022/07/25 11:51:17;;;;;;;15.90;11.15;;;;;;;25.22;45.62;99979.41;1748720;81;21452;-67
2022/07/25 11:53:49;;;;;;;11.12;4.53;;;;;;;25.24;45.68;99995.36;1763399;81;21068;-68